Time;durP1;ratioP1;P1;durP2;ratioP2;P2;SDS_P1;SDS_P2;PMS_P1;PMS_P2;Temp;Humidity;BMP_temperature;BMP_pressure;BME280_temperature;BME280_humidity;BME280_pressure;Samples;Min_cycle;Max_cycle;Signal;HPM_P1;HPM_P2
2023/03/06 00:01:05;;;;;;;17.40;12.40;;;;;;;2.40;99.76;151982.41;4952965;28;20440;-77
2023/03/06 00:03:33;;;;;;;28.50;13.97;;;;;;;2.37;97.00;151976.00;4954204;28;20456;-77
2023/03/06 00:06:00;;;;;;;17.93;12.70;;;;;;;2.34;96.93;151966.97;4935789;29;21017;-77
2023/03/06 00:08:28;;;;;;;21.87;13.67;;;;;;;2.36;98.17;151973.41;4954000;28;20434;-77
2023/03/06 00:10:56;;;;;;;21.43;12.77;;;;;;;2.38;98.76;151978.53;4951962;28;20851;-77
2023/03/06 00:13:22;;;;;;;15.80;11.60;;;;;;;2.34;97.38;151966.97;4951379;28;20462;-77
2023/03/06 00:15:49;;;;;;;19.00;12.73;;;;;;;2.33;97.36;151965.66;4957801;28;20438;-77
2023/03/06 00:18:16;;;;;;;19.37;12.97;;;;;;;2.32;97.17;151963.13;4947831;28;20511;-77
2023/03/06 00:20:44;;;;;;;18.57;12.40;;;;;;;2.35;98.68;151969.56;4940912;28;20462;-77
2023/03/06 00:23:11;;;;;;;23.37;12.87;;;;;;;2.31;97.70;151960.53;4965021;28;20920;-77
2023/03/06 00:25:42;;;;;;;17.50;13.00;;;;;;;2.29;97.41;151955.41;4952490;28;20572;-77
2023/03/06 00:28:08;;;;;;;18.87;12.50;;;;;;;2.34;99.46;151966.97;4948187;28;20453;-77
2023/03/06 00:30:35;;;;;;;20.17;13.27;;;;;;;2.29;98.14;151954.13;4953037;29;20451;-77
2023/03/06 00:33:02;;;;;;;18.60;12.63;;;;;;;2.26;96.74;151947.69;4951904;28;20526;-77
2023/03/06 00:35:30;;;;;;;17.77;12.23;;;;;;;2.27;97.00;151948.97;4950823;28;20455;-77
2023/03/06 00:37:58;;;;;;;17.00;12.47;;;;;;;2.25;96.68;151945.09;4965796;28;20942;-77
2023/03/06 00:40:25;;;;;;;16.10;12.27;;;;;;;2.27;97.46;151950.28;4965449;28;20537;-77
2023/03/06 00:42:53;;;;;;;20.37;12.63;;;;;;;2.25;96.55;151943.84;4952287;28;20442;-77
2023/03/06 00:45:19;;;;;;;17.60;12.70;;;;;;;2.25;97.26;151943.84;4950157;28;20461;-77
2023/03/06 00:47:46;;;;;;;19.83;13.13;;;;;;;2.28;97.69;151951.53;4934197;29;20879;-77
2023/03/06 00:50:14;;;;;;;18.07;11.87;;;;;;;2.26;97.20;151947.69;4935382;29;20595;-77
2023/03/06 00:52:41;;;;;;;19.07;11.70;;;;;;;2.24;98.15;151942.56;4965994;28;20558;-77
2023/03/06 00:55:10;;;;;;;18.57;12.60;;;;;;;2.25;98.66;151945.09;4936274;29;20649;-77
2023/03/06 00:57:37;;;;;;;17.20;12.13;;;;;;;2.27;98.32;151948.97;4934967;29;20433;-77
2023/03/06 01:00:05;;;;;;;21.57;13.07;;;;;;;2.25;97.80;151945.09;4935384;28;21237;-77
2023/03/06 01:02:32;;;;;;;24.10;13.20;;;;;;;2.22;97.01;151937.44;4950167;28;20550;-77
2023/03/06 01:04:59;;;;;;;20.77;13.60;;;;;;;2.22;97.31;151937.44;4957003;28;20465;-77
2023/03/06 01:07:26;;;;;;;21.07;13.97;;;;;;;2.26;98.82;151946.41;4965618;28;20470;-77
2023/03/06 01:09:52;;;;;;;20.30;12.67;;;;;;;2.23;98.52;151938.66;4954893;28;20465;-77
2023/03/06 01:12:22;;;;;;;21.23;12.90;;;;;;;2.23;98.59;151938.66;4936201;29;20445;-77
2023/03/06 01:14:50;;;;;;;16.17;12.73;;;;;;;2.23;98.64;151938.66;4965667;28;20468;-77
2023/03/06 01:17:17;;;;;;;20.70;13.00;;;;;;;2.18;97.40;151927.13;4955724;28;20667;-77
2023/03/06 01:19:44;;;;;;;18.93;11.80;;;;;;;2.18;97.62;151925.81;4950191;28;20563;-77
2023/03/06 01:22:13;;;;;;;17.33;11.53;;;;;;;2.17;97.55;151924.53;4935334;29;21024;-77
2023/03/06 01:24:40;;;;;;;17.07;12.53;;;;;;;2.18;98.48;151925.81;4962819;28;20462;-77
2023/03/06 01:27:07;;;;;;;18.67;11.70;;;;;;;2.19;100.00;151929.72;4945867;28;20475;-77
2023/03/06 01:29:35;;;;;;;19.67;12.90;;;;;;;2.17;99.42;151924.53;4962943;28;20462;-77
2023/03/06 01:32:02;;;;;;;20.50;13.07;;;;;;;2.16;99.43;151921.97;4945050;28;20453;-77
2023/03/06 01:34:28;;;;;;;19.80;12.63;;;;;;;2.11;97.48;151909.13;4949028;28;20458;-77
2023/03/06 01:36:55;;;;;;;20.27;11.93;;;;;;;2.10;97.65;151906.53;4952497;28;20486;-77
2023/03/06 01:39:22;;;;;;;20.07;13.30;;;;;;;2.13;99.35;151914.25;4947829;28;20496;-77
2023/03/06 01:41:48;;;;;;;18.37;11.97;;;;;;;2.15;98.50;151919.41;4956428;28;20540;-77
2023/03/06 01:44:16;;;;;;;20.40;13.60;;;;;;;2.15;98.69;151918.09;4933879;29;20576;-77
2023/03/06 01:46:44;;;;;;;19.30;11.60;;;;;;;2.13;97.50;151912.97;4949641;28;20568;-77
2023/03/06 01:49:15;;;;;;;18.87;11.97;;;;;;;2.11;97.80;151907.84;4934551;29;20450;-77
2023/03/06 01:51:46;;;;;;;19.23;12.63;;;;;;;2.13;97.72;151912.97;4949266;28;20457;-77
2023/03/06 01:54:16;;;;;;;19.13;12.47;;;;;;;2.12;98.00;151911.69;4950714;28;20492;-77
2023/03/06 01:56:45;;;;;;;21.17;13.10;;;;;;;2.12;97.50;151911.69;4950331;28;20552;-77
2023/03/06 01:59:12;;;;;;;16.97;11.47;;;;;;;2.12;97.60;151911.69;4932195;28;20457;-77
2023/03/06 02:01:39;;;;;;;17.73;11.70;;;;;;;2.11;97.29;151907.84;4952690;28;20556;-77
2023/03/06 02:04:08;;;;;;;18.97;12.17;;;;;;;2.11;97.66;151909.13;4963835;28;20462;-77
2023/03/06 02:06:38;;;;;;;16.80;11.83;;;;;;;2.11;97.95;151909.13;4943667;29;20478;-77
2023/03/06 02:09:06;;;;;;;16.43;11.50;;;;;;;2.11;97.62;151909.13;4950933;28;20449;-77
2023/03/06 02:11:33;;;;;;;13.93;9.87;;;;;;;2.11;98.29;151909.13;4961631;28;20462;-77
2023/03/06 02:14:00;;;;;;;16.90;12.37;;;;;;;2.13;99.02;151914.25;4949237;28;20450;-77
2023/03/06 02:16:28;;;;;;;19.50;11.60;;;;;;;2.10;98.04;151906.53;4950444;28;20516;-77
2023/03/06 02:18:55;;;;;;;16.17;11.10;;;;;;;2.05;96.53;151893.69;4950241;28;20466;-77
2023/03/06 02:21:26;;;;;;;17.47;10.47;;;;;;;2.07;98.86;151898.81;4948885;28;20481;-77
2023/03/06 02:24:05;;;;;;;15.70;10.97;;;;;;;2.06;98.40;151896.28;4962128;28;20636;-77
2023/03/06 02:26:33;;;;;;;13.30;10.23;;;;;;;2.04;97.88;151889.84;4961823;28;20570;-77
2023/03/06 02:29:00;;;;;;;15.70;10.83;;;;;;;2.01;97.20;151883.44;4944361;28;20814;-77
2023/03/06 02:31:29;;;;;;;17.07;10.73;;;;;;;1.98;95.25;151875.72;4932624;29;20458;-77
2023/03/06 02:34:05;;;;;;;15.20;11.03;;;;;;;2.00;96.84;151879.56;4967198;28;20446;-77
2023/03/06 02:36:33;;;;;;;16.00;11.50;;;;;;;1.98;96.56;151875.72;4967221;28;20540;-77
2023/03/06 02:39:01;;;;;;;16.80;10.13;;;;;;;1.96;95.31;151870.53;4953453;28;21051;-77
2023/03/06 02:41:27;;;;;;;13.53;11.43;;;;;;;1.98;96.63;151874.41;4935927;29;20457;-77
2023/03/06 02:43:56;;;;;;;16.63;10.73;;;;;;;1.96;95.72;151869.28;4954545;28;20443;-77
2023/03/06 02:46:22;;;;;;;18.63;10.50;;;;;;;1.95;97.11;151868.00;4937065;29;20561;-77
2023/03/06 02:48:49;;;;;;;15.70;11.20;;;;;;;1.98;97.70;151875.72;4937262;28;20557;-77
2023/03/06 02:51:16;;;;;;;17.57;10.90;;;;;;;1.95;96.43;151866.69;4951320;28;20461;-77
2023/03/06 02:53:43;;;;;;;17.80;12.37;;;;;;;1.91;95.77;151857.69;4961000;28;20460;-77
2023/03/06 02:56:10;;;;;;;15.47;9.57;;;;;;;1.94;96.93;151865.41;4947176;29;20562;-77
2023/03/06 02:58:37;;;;;;;15.80;10.87;;;;;;;1.90;96.13;151855.16;4951988;29;21016;-92
2023/03/06 03:01:05;;;;;;;12.60;10.00;;;;;;;1.88;96.48;151849.97;4964777;28;20445;-91
2023/03/06 03:03:33;;;;;;;14.67;9.90;;;;;;;1.85;96.28;151843.53;4972588;28;20448;-91
2023/03/06 03:06:00;;;;;;;17.87;11.03;;;;;;;1.86;96.42;151844.84;4977424;28;20500;-91
2023/03/06 03:08:30;;;;;;;14.90;11.80;;;;;;;1.86;96.16;151844.84;4937825;29;20552;-92
2023/03/06 03:11:00;;;;;;;14.53;10.60;;;;;;;1.86;96.36;151844.84;4957666;28;20488;-92
2023/03/06 03:13:32;;;;;;;14.23;10.40;;;;;;;1.82;95.24;151835.88;4956077;28;20437;-91
2023/03/06 03:16:02;;;;;;;19.40;10.97;;;;;;;1.84;95.19;151839.72;4938150;29;21014;-92
2023/03/06 03:18:30;;;;;;;14.53;10.30;;;;;;;1.85;96.15;151842.28;4954942;29;20563;-92
2023/03/06 03:20:58;;;;;;;13.87;9.87;;;;;;;1.87;95.98;151846.13;4954239;28;21015;-91
2023/03/06 03:23:25;;;;;;;13.97;10.07;;;;;;;1.87;96.62;151846.13;4955254;28;20507;-91
2023/03/06 03:25:51;;;;;;;13.03;9.63;;;;;;;1.89;96.84;151851.25;4950111;28;20521;-91
2023/03/06 03:28:19;;;;;;;13.63;8.90;;;;;;;1.87;95.66;151847.41;4942600;29;20505;-91
2023/03/06 03:30:46;;;;;;;12.30;9.20;;;;;;;1.91;97.03;151857.69;4928641;28;20445;-92
2023/03/06 03:33:13;;;;;;;15.40;10.37;;;;;;;1.88;97.11;151848.72;4969386;28;20981;-92
2023/03/06 03:35:41;;;;;;;15.83;10.67;;;;;;;1.86;95.79;151844.84;4933696;29;20514;-91
2023/03/06 03:38:08;;;;;;;16.20;10.73;;;;;;;1.89;97.02;151852.56;4952035;29;20489;-91
2023/03/06 03:40:35;;;;;;;15.30;10.20;;;;;;;1.89;96.41;151852.56;4977644;28;20514;-91
2023/03/06 03:43:02;;;;;;;14.30;10.00;;;;;;;1.87;96.13;151847.41;4949792;28;20444;-91
2023/03/06 03:45:29;;;;;;;15.17;9.97;;;;;;;1.87;96.77;151847.41;4953673;28;20488;-91
2023/03/06 03:47:56;;;;;;;12.50;9.80;;;;;;;1.89;97.27;151852.56;4938440;29;20479;-91
2023/03/06 03:50:24;;;;;;;13.97;9.30;;;;;;;1.90;97.42;151853.84;4949557;28;20457;-91
2023/03/06 03:52:52;;;;;;;16.50;10.03;;;;;;;1.90;97.92;151855.16;4966968;28;20473;-92
2023/03/06 03:55:19;;;;;;;14.47;10.00;;;;;;;1.87;96.01;151846.13;4959044;28;20453;-91
2023/03/06 03:57:46;;;;;;;12.87;9.30;;;;;;;1.84;94.67;151841.00;4963711;28;20458;-92
2023/03/06 04:00:15;;;;;;;11.77;8.73;;;;;;;1.85;94.81;151842.28;4950601;28;20888;-92
2023/03/06 04:02:51;;;;;;;12.40;9.23;;;;;;;1.88;96.16;151848.72;4968015;28;20503;-92
2023/03/06 04:05:25;;;;;;;13.70;9.53;;;;;;;1.90;97.04;151855.16;4953170;28;20818;-91
2023/03/06 04:07:54;;;;;;;12.90;9.00;;;;;;;1.90;97.18;151855.16;4937853;29;20477;-91
2023/03/06 04:10:21;;;;;;;13.17;8.50;;;;;;;1.88;95.61;151848.72;4936654;29;20465;-92
2023/03/06 04:12:49;;;;;;;13.90;8.37;;;;;;;1.88;96.28;151849.97;4952475;28;20462;-91
2023/03/06 04:15:16;;;;;;;11.50;7.70;;;;;;;1.88;94.84;151849.97;4954054;28;20467;-91
2023/03/06 04:17:45;;;;;;;11.37;7.67;;;;;;;1.84;94.79;151839.72;4953823;28;20477;-91
2023/03/06 04:20:15;;;;;;;10.93;7.70;;;;;;;1.84;94.03;151841.00;4953096;28;20457;-92
2023/03/06 04:22:43;;;;;;;12.00;8.33;;;;;;;1.84;94.38;151839.72;4937617;28;20454;-92
2023/03/06 04:25:12;;;;;;;12.97;8.90;;;;;;;1.85;94.91;151842.28;4964056;28;20470;-91
2023/03/06 04:27:40;;;;;;;10.73;7.80;;;;;;;1.85;95.05;151843.53;4960029;28;20477;-91
2023/03/06 04:30:08;;;;;;;13.20;9.13;;;;;;;1.87;95.70;151847.41;4955113;28;20464;-91
2023/03/06 04:32:35;;;;;;;10.90;7.80;;;;;;;1.86;95.96;151844.84;4933548;29;20546;-91
2023/03/06 04:35:02;;;;;;;11.20;9.00;;;;;;;1.87;95.42;151846.13;4944598;28;20453;-92
2023/03/06 04:37:34;;;;;;;12.80;8.83;;;;;;;1.84;95.19;151839.72;4950100;28;20461;-91
2023/03/06 04:40:02;;;;;;;13.50;8.87;;;;;;;1.82;93.93;151834.56;4937516;29;20454;-92
2023/03/06 04:42:30;;;;;;;13.60;9.07;;;;;;;1.80;94.39;151830.69;4950191;28;20458;-92
2023/03/06 04:44:56;;;;;;;11.37;7.97;;;;;;;1.80;94.54;151830.69;4956612;28;20447;-91
2023/03/06 04:47:23;;;;;;;11.90;8.60;;;;;;;1.78;94.17;151824.25;4960965;28;20484;-91
2023/03/06 04:49:50;;;;;;;11.47;8.00;;;;;;;1.76;94.92;151820.44;4962970;28;20521;-91
2023/03/06 04:52:16;;;;;;;11.70;8.23;;;;;;;1.78;95.17;151824.25;4953070;28;20796;-91
2023/03/06 04:54:44;;;;;;;11.00;7.23;;;;;;;1.76;95.01;151819.13;4957157;28;20453;-91
2023/03/06 04:57:12;;;;;;;10.70;7.40;;;;;;;1.74;94.60;151814.00;4953642;28;20784;-91
2023/03/06 04:59:41;;;;;;;9.93;7.60;;;;;;;1.74;94.34;151814.00;4942285;29;20958;-91
2023/03/06 05:02:07;;;;;;;10.17;7.30;;;;;;;1.72;94.10;151808.88;4937686;29;20466;-91
2023/03/06 05:04:34;;;;;;;13.37;8.43;;;;;;;1.74;94.21;151814.00;4946147;28;20880;-91
2023/03/06 05:07:01;;;;;;;11.33;7.70;;;;;;;1.73;94.62;151811.41;4966535;28;20482;-90
2023/03/06 05:09:28;;;;;;;12.03;7.83;;;;;;;1.77;95.91;151821.72;4939022;28;20449;-89
2023/03/06 05:11:55;;;;;;;11.23;7.53;;;;;;;1.74;95.20;151815.31;4949882;28;20470;-90
2023/03/06 05:14:21;;;;;;;11.13;7.33;;;;;;;1.74;95.34;151814.00;4950897;28;21068;-90
2023/03/06 05:16:49;;;;;;;10.70;7.87;;;;;;;1.74;94.55;151815.31;4948516;28;20529;-90
2023/03/06 05:19:16;;;;;;;11.83;7.77;;;;;;;1.75;94.86;151816.56;4933614;29;20542;-90
2023/03/06 05:21:43;;;;;;;10.83;7.30;;;;;;;1.79;94.73;151826.84;4948154;28;20455;-91
2023/03/06 05:24:10;;;;;;;10.90;7.47;;;;;;;1.77;93.88;151822.97;4946608;28;20521;-90
2023/03/06 05:26:37;;;;;;;15.20;8.07;;;;;;;1.80;95.62;151829.44;4965761;28;20461;-90
2023/03/06 05:29:04;;;;;;;10.03;7.23;;;;;;;1.78;95.05;151824.25;4947070;29;20573;-90
2023/03/06 05:31:30;;;;;;;12.43;6.97;;;;;;;1.73;93.99;151812.72;4935630;29;20473;-90
2023/03/06 05:33:59;;;;;;;11.40;7.17;;;;;;;1.75;93.74;151816.56;4951887;28;21918;-91
2023/03/06 05:36:26;;;;;;;9.90;7.43;;;;;;;1.75;94.05;151816.56;4952896;28;20529;-90
2023/03/06 05:38:53;;;;;;;10.83;7.77;;;;;;;1.75;94.47;151817.84;4949404;28;20493;-90
2023/03/06 05:41:19;;;;;;;10.33;7.90;;;;;;;1.76;94.85;151819.13;4951349;28;20458;-90
2023/03/06 05:43:46;;;;;;;11.60;6.53;;;;;;;1.76;94.81;151819.13;4949843;29;20560;-91
2023/03/06 05:46:13;;;;;;;11.80;7.20;;;;;;;1.74;94.30;151815.31;4955303;28;20463;-90
2023/03/06 05:48:40;;;;;;;11.60;7.97;;;;;;;1.77;95.40;151822.97;4965423;28;20480;-90
2023/03/06 05:51:09;;;;;;;11.10;7.53;;;;;;;1.78;96.72;151825.56;4948538;28;20477;-91
2023/03/06 05:53:36;;;;;;;12.30;7.37;;;;;;;1.72;93.98;151808.88;4949967;28;20549;-90
2023/03/06 05:56:04;;;;;;;10.50;7.17;;;;;;;1.73;94.35;151811.41;4932547;29;20442;-90
2023/03/06 05:58:33;;;;;;;11.37;6.57;;;;;;;1.73;95.14;151811.41;4954141;28;20450;-90
2023/03/06 06:01:00;;;;;;;10.03;6.63;;;;;;;1.68;92.82;151798.56;4967519;28;20458;-90
2023/03/06 06:03:27;;;;;;;10.60;7.80;;;;;;;1.66;92.83;151794.75;4964177;28;20539;-90
2023/03/06 06:05:54;;;;;;;12.10;6.90;;;;;;;1.69;93.26;151802.47;4955955;28;20461;-89
2023/03/06 06:08:22;;;;;;;12.57;7.30;;;;;;;1.68;92.59;151798.56;4955470;28;20539;-90
2023/03/06 06:10:49;;;;;;;9.23;5.87;;;;;;;1.68;92.40;151799.88;4940844;28;20529;-90
2023/03/06 06:13:15;;;;;;;12.17;7.63;;;;;;;1.71;92.58;151806.28;4943352;28;20457;-90
2023/03/06 06:15:42;;;;;;;9.93;7.73;;;;;;;1.69;92.43;151802.47;4956756;28;20449;-90
2023/03/06 06:18:09;;;;;;;10.03;7.13;;;;;;;1.71;93.44;151806.28;4942136;28;20587;-90
2023/03/06 06:20:37;;;;;;;12.20;7.17;;;;;;;1.72;93.76;151808.88;4956590;28;20459;-90
2023/03/06 06:23:03;;;;;;;12.30;8.00;;;;;;;1.74;95.04;151815.31;4954207;28;20462;-90
2023/03/06 06:25:31;;;;;;;9.80;7.83;;;;;;;1.71;94.22;151806.28;4957236;28;21304;-90
2023/03/06 06:27:58;;;;;;;11.70;8.40;;;;;;;1.69;92.78;151801.16;4956360;28;20477;-90
2023/03/06 06:30:25;;;;;;;10.90;7.80;;;;;;;1.73;94.38;151811.41;4933113;29;20461;-90
2023/03/06 06:32:51;;;;;;;10.93;7.30;;;;;;;1.73;94.94;151811.41;4945572;28;20479;-90
2023/03/06 06:35:18;;;;;;;11.10;7.80;;;;;;;1.74;94.95;151814.00;4966574;28;20459;-90
2023/03/06 06:37:45;;;;;;;12.93;7.83;;;;;;;1.74;94.13;151814.00;4939508;28;20509;-89
2023/03/06 06:40:12;;;;;;;12.90;7.40;;;;;;;1.75;94.44;151816.56;4938171;28;20461;-90
2023/03/06 06:42:41;;;;;;;11.07;8.10;;;;;;;1.76;95.21;151819.13;4937107;28;20482;-90
2023/03/06 06:45:09;;;;;;;12.07;7.90;;;;;;;1.76;94.69;151819.13;4954223;28;20461;-90
2023/03/06 06:47:39;;;;;;;12.30;7.70;;;;;;;1.75;94.24;151816.56;4954133;28;20471;-90
2023/03/06 06:50:08;;;;;;;13.57;8.70;;;;;;;1.77;94.13;151821.72;4956681;28;20465;-90
2023/03/06 06:52:35;;;;;;;10.50;7.93;;;;;;;1.80;95.29;151830.69;4954823;28;20473;-90
2023/03/06 06:55:01;;;;;;;12.10;7.30;;;;;;;1.81;94.96;151833.28;4943238;28;20528;-90
2023/03/06 06:57:28;;;;;;;11.47;7.50;;;;;;;1.79;94.31;151828.16;4940102;29;20566;-90
2023/03/06 06:59:57;;;;;;;12.17;7.60;;;;;;;1.81;94.69;151833.28;4954741;28;20935;-90
2023/03/06 07:02:23;;;;;;;11.40;7.67;;;;;;;1.80;93.76;151830.69;4938669;29;20496;-90
2023/03/06 07:04:50;;;;;;;11.33;7.60;;;;;;;1.81;94.27;151832.00;4955420;28;20525;-90
2023/03/06 07:07:17;;;;;;;13.23;7.70;;;;;;;1.83;94.52;151837.13;4955269;28;20974;-90
2023/03/06 07:09:44;;;;;;;13.83;8.87;;;;;;;1.83;93.78;151837.13;4926329;29;20457;-90
2023/03/06 07:12:10;;;;;;;12.50;8.30;;;;;;;1.85;93.52;151843.53;4951781;28;20458;-90
2023/03/06 07:14:40;;;;;;;11.23;8.07;;;;;;;1.87;93.64;151847.41;4954414;28;20553;-91
2023/03/06 07:17:08;;;;;;;12.43;8.20;;;;;;;1.92;95.23;151860.28;4945183;28;20487;-90
2023/03/06 07:19:35;;;;;;;13.20;9.43;;;;;;;1.91;94.53;151856.44;4956909;28;20474;-90
2023/03/06 07:22:03;;;;;;;12.10;7.23;;;;;;;1.95;95.58;151866.69;4949171;29;20455;-91
2023/03/06 07:24:30;;;;;;;11.00;7.97;;;;;;;1.94;95.67;151865.41;4928852;29;20942;-90
2023/03/06 07:26:56;;;;;;;13.33;8.43;;;;;;;1.92;94.67;151860.28;4943609;28;20441;-90
2023/03/06 07:29:23;;;;;;;12.30;8.63;;;;;;;1.95;94.58;151868.00;4927979;29;20579;-90
2023/03/06 07:31:50;;;;;;;13.13;8.83;;;;;;;1.97;94.59;151871.81;4958847;28;20855;-90
2023/03/06 07:34:18;;;;;;;11.37;7.70;;;;;;;2.01;94.99;151883.44;4957097;28;20842;-90
2023/03/06 07:36:45;;;;;;;15.80;9.00;;;;;;;2.04;95.35;151891.09;4960214;28;20460;-90
2023/03/06 07:39:12;;;;;;;13.30;8.40;;;;;;;2.07;95.61;151898.81;4943706;28;20815;-90
2023/03/06 07:41:38;;;;;;;12.20;7.33;;;;;;;2.06;95.13;151896.28;4949544;28;20529;-90
2023/03/06 07:44:05;;;;;;;14.70;8.50;;;;;;;2.05;94.70;151893.69;4944739;28;20820;-90
2023/03/06 07:46:32;;;;;;;11.43;7.93;;;;;;;2.07;94.02;151897.53;4961232;28;20797;-91
2023/03/06 07:48:58;;;;;;;14.40;8.33;;;;;;;2.11;95.52;151909.13;4946047;28;20578;-91
2023/03/06 07:51:27;;;;;;;11.33;7.60;;;;;;;2.17;95.72;151924.53;4958391;28;20874;-90
2023/03/06 07:53:53;;;;;;;12.73;8.67;;;;;;;2.18;94.45;151927.13;4932526;29;20489;-91
2023/03/06 07:56:20;;;;;;;11.60;7.67;;;;;;;2.22;94.50;151936.13;4947588;28;20455;-91
2023/03/06 07:58:48;;;;;;;11.87;8.07;;;;;;;2.28;96.67;151951.53;4945771;28;20469;-90
2023/03/06 08:01:17;;;;;;;11.07;7.90;;;;;;;2.30;95.68;151957.94;4957912;28;20483;-91
2023/03/06 08:03:43;;;;;;;10.93;8.07;;;;;;;2.34;94.26;151968.25;4956644;28;20501;-91
2023/03/06 08:06:12;;;;;;;11.93;8.30;;;;;;;2.40;95.54;151983.72;4958843;28;20547;-90
2023/03/06 08:08:42;;;;;;;11.43;7.47;;;;;;;2.46;95.35;151999.09;4960212;28;20619;-90
2023/03/06 08:11:10;;;;;;;12.77;8.70;;;;;;;2.54;93.57;152017.16;4962664;28;20813;-91
2023/03/06 08:13:37;;;;;;;12.23;8.30;;;;;;;2.61;95.31;152035.13;4931475;29;21207;-91
2023/03/06 08:16:05;;;;;;;11.50;7.77;;;;;;;2.63;93.51;152040.25;4937767;29;20451;-91
2023/03/06 08:18:32;;;;;;;10.63;7.33;;;;;;;2.69;91.93;152057.00;4960478;29;20547;-92
2023/03/06 08:21:03;;;;;;;11.23;7.83;;;;;;;2.78;91.89;152080.13;4946125;28;20456;-92
2023/03/06 08:23:30;;;;;;;12.40;7.80;;;;;;;2.84;92.07;152094.28;4943896;28;20458;-92
2023/03/06 08:25:58;;;;;;;9.67;7.20;;;;;;;2.88;90.92;152105.91;4957307;28;20545;-92
2023/03/06 08:28:26;;;;;;;8.83;6.70;;;;;;;2.97;92.84;152129.03;4958617;28;20469;-91
2023/03/06 08:30:52;;;;;;;9.97;6.87;;;;;;;3.05;92.61;152148.31;4946135;28;20536;-92
2023/03/06 08:33:19;;;;;;;9.50;7.03;;;;;;;3.17;88.84;152177.94;4959636;28;20466;-92
2023/03/06 08:35:47;;;;;;;8.57;6.70;;;;;;;3.21;89.43;152189.50;4937537;28;20465;-92
2023/03/06 08:38:14;;;;;;;8.03;5.80;;;;;;;3.22;87.20;152192.09;4950116;28;20451;-92
2023/03/06 08:40:41;;;;;;;8.17;5.60;;;;;;;3.28;88.67;152207.56;4974514;28;20477;-92
2023/03/06 08:43:10;;;;;;;8.83;5.57;;;;;;;3.33;89.99;152220.41;4980462;28;20520;-92
2023/03/06 08:45:38;;;;;;;10.07;6.20;;;;;;;3.31;88.06;152215.22;4955924;28;20459;-92
2023/03/06 08:48:05;;;;;;;8.47;5.83;;;;;;;3.37;87.66;152230.69;4956544;28;20455;-92
2023/03/06 08:50:32;;;;;;;10.43;6.20;;;;;;;3.46;86.66;152253.88;4958682;28;20475;-92
2023/03/06 08:52:59;;;;;;;8.97;5.90;;;;;;;3.53;88.36;152271.88;4945224;28;20452;-93
2023/03/06 08:55:28;;;;;;;9.70;6.40;;;;;;;3.55;88.11;152277.03;4963115;28;20464;-93
2023/03/06 08:57:57;;;;;;;9.00;6.10;;;;;;;3.64;87.87;152300.22;4945202;28;21063;-93
2023/03/06 09:00:25;;;;;;;11.33;5.70;;;;;;;3.74;85.73;152323.34;4944493;28;21037;-93
2023/03/06 09:02:52;;;;;;;7.73;5.60;;;;;;;3.86;85.28;152355.56;4959098;28;20567;-93
2023/03/06 09:05:20;;;;;;;8.60;5.70;;;;;;;3.97;86.60;152382.63;4944808;29;20474;-93
2023/03/06 09:07:46;;;;;;;9.33;6.63;;;;;;;4.06;85.71;152407.06;4945437;28;20466;-93
2023/03/06 09:10:14;;;;;;;8.67;6.50;;;;;;;4.17;86.78;152435.41;4960554;28;20556;-93
2023/03/06 09:12:41;;;;;;;7.43;5.70;;;;;;;4.20;86.02;152443.16;4955841;28;20456;-93
2023/03/06 09:15:09;;;;;;;10.30;6.40;;;;;;;4.17;84.21;152434.13;4946100;28;20591;-92
2023/03/06 09:17:38;;;;;;;9.07;6.20;;;;;;;4.21;84.43;152444.41;4941148;28;20570;-93
2023/03/06 09:20:06;;;;;;;7.70;6.00;;;;;;;4.23;81.25;152449.59;4943777;28;20960;-93
2023/03/06 09:22:33;;;;;;;7.60;6.33;;;;;;;4.31;84.10;152471.44;4961265;28;20444;-93
2023/03/06 09:25:00;;;;;;;9.83;6.60;;;;;;;4.38;83.16;152486.91;4971774;28;20507;-93
2023/03/06 09:27:27;;;;;;;9.53;6.93;;;;;;;4.38;87.09;152488.22;4949213;28;20888;-93
2023/03/06 09:29:55;;;;;;;8.73;6.17;;;;;;;4.31;83.47;152470.19;4965031;28;20520;-93
2023/03/06 09:32:21;;;;;;;8.40;6.43;;;;;;;4.34;84.93;152476.63;4934755;28;20458;-92
2023/03/06 09:34:50;;;;;;;8.00;6.07;;;;;;;4.36;82.22;152481.78;4958555;28;20608;-93
2023/03/06 09:37:17;;;;;;;8.57;5.63;;;;;;;4.46;82.32;152507.53;4943633;28;20888;-93
2023/03/06 09:39:44;;;;;;;8.37;6.10;;;;;;;4.48;80.79;152513.97;4959798;28;20489;-93
2023/03/06 09:42:15;;;;;;;8.60;6.07;;;;;;;4.45;81.25;152506.22;4960252;28;21004;-94
2023/03/06 09:44:43;;;;;;;7.20;5.47;;;;;;;4.44;82.03;152503.69;4951558;28;20855;-94
2023/03/06 09:47:28;;;;;;;6.67;5.40;;;;;;;4.47;80.76;152511.41;4937255;28;20944;-94
2023/03/06 09:50:12;;;;;;;8.37;5.90;;;;;;;4.49;83.17;152516.56;4965037;28;20499;-94
2023/03/06 09:52:44;;;;;;;8.93;6.70;;;;;;;4.56;84.97;152534.59;4961379;28;20448;-94
2023/03/06 09:55:13;;;;;;;7.27;5.27;;;;;;;4.59;84.86;152542.31;4943395;28;20818;-92
2023/03/06 09:57:43;;;;;;;7.50;5.50;;;;;;;4.61;82.41;152547.47;4947309;28;20460;-94
2023/03/06 10:00:14;;;;;;;7.37;5.70;;;;;;;4.62;82.36;152550.06;4961308;28;20550;-94
2023/03/06 10:02:44;;;;;;;8.50;6.43;;;;;;;4.69;82.25;152568.06;4959076;28;20536;-94
2023/03/06 10:05:15;;;;;;;7.37;5.50;;;;;;;4.68;84.18;152565.53;4946551;28;20470;-93
2023/03/06 10:07:45;;;;;;;7.17;6.27;;;;;;;4.70;82.44;152570.66;4958044;28;20566;-94
2023/03/06 10:10:20;;;;;;;7.23;5.23;;;;;;;4.73;80.28;152578.41;4964150;28;20797;-93
2023/03/06 10:12:50;;;;;;;7.93;5.27;;;;;;;4.85;82.72;152608.03;4936535;29;20451;-93
2023/03/06 10:15:18;;;;;;;6.40;5.00;;;;;;;4.86;81.38;152611.91;4942036;28;20488;-94
2023/03/06 10:17:45;;;;;;;6.83;4.97;;;;;;;4.93;78.76;152629.94;4939652;29;20518;-94
2023/03/06 10:20:19;;;;;;;8.40;5.40;;;;;;;5.07;77.10;152664.75;4977169;28;20486;-93
2023/03/06 10:22:55;;;;;;;6.73;5.00;;;;;;;5.07;77.04;152663.44;4962461;28;20685;-94
2023/03/06 10:25:24;;;;;;;9.20;5.27;;;;;;;5.10;77.83;152671.19;4944350;28;20457;-94
2023/03/06 10:27:57;;;;;;;8.07;5.53;;;;;;;5.12;79.43;152676.31;4948038;28;20489;-93
2023/03/06 10:30:32;;;;;;;6.50;4.63;;;;;;;5.10;77.64;152672.47;4937065;29;21190;-94
2023/03/06 10:33:00;;;;;;;6.00;4.93;;;;;;;5.07;77.57;152663.44;4953482;28;20444;-94
2023/03/06 10:35:33;;;;;;;6.87;4.70;;;;;;;5.12;80.14;152677.63;4951941;29;20448;-93
2023/03/06 10:38:02;;;;;;;7.57;5.87;;;;;;;5.19;80.08;152694.41;4946693;28;20460;-93
2023/03/06 10:40:35;;;;;;;6.57;5.10;;;;;;;5.22;77.48;152702.09;4935113;29;20503;-94
2023/03/06 10:43:02;;;;;;;6.40;5.13;;;;;;;5.20;79.73;152698.25;4965364;28;20822;-94
2023/03/06 10:45:29;;;;;;;6.83;5.13;;;;;;;5.17;77.33;152689.22;4965086;28;20468;-92
2023/03/06 10:48:10;;;;;;;8.00;5.07;;;;;;;5.17;79.28;152689.22;4964686;28;20539;-92
2023/03/06 10:50:39;;;;;;;8.30;5.50;;;;;;;5.17;79.55;152690.50;4985267;28;20458;-94
2023/03/06 10:53:10;;;;;;;8.03;4.70;;;;;;;5.11;76.25;152675.03;4975625;28;20459;-94
2023/03/06 10:55:37;;;;;;;7.00;4.70;;;;;;;5.10;78.94;152672.47;4957284;28;20460;-93
2023/03/06 10:58:23;;;;;;;6.43;4.70;;;;;;;5.09;77.45;152668.59;4963001;28;20454;-94
2023/03/06 11:01:01;;;;;;;6.20;4.90;;;;;;;5.09;76.37;152668.59;4961866;28;20475;-94
2023/03/06 11:03:28;;;;;;;9.60;5.40;;;;;;;5.07;77.57;152664.75;4968835;28;20456;-94
2023/03/06 11:06:01;;;;;;;9.40;5.70;;;;;;;5.02;79.55;152651.84;4951874;28;20506;-94
2023/03/06 11:08:29;;;;;;;7.60;5.80;;;;;;;5.00;78.94;152645.41;4952909;28;20450;-93
2023/03/06 11:10:58;;;;;;;7.00;5.33;;;;;;;5.00;78.45;152645.41;4935544;29;21069;-94
2023/03/06 11:13:27;;;;;;;8.80;5.83;;;;;;;4.99;75.68;152642.81;4937737;29;20451;-94
2023/03/06 11:16:00;;;;;;;6.73;5.10;;;;;;;5.05;78.10;152658.31;4944917;29;20487;-94
2023/03/06 11:18:33;;;;;;;8.53;6.40;;;;;;;5.11;76.44;152673.78;4941982;29;20511;-95
2023/03/06 11:21:03;;;;;;;8.10;6.70;;;;;;;5.10;78.27;152672.47;4939510;29;20454;-94
2023/03/06 11:23:38;;;;;;;7.93;6.43;;;;;;;5.09;80.72;152669.88;4942736;28;20447;-94
2023/03/06 11:26:20;;;;;;;8.70;5.57;;;;;;;5.16;79.45;152686.66;4953276;28;20443;-94
2023/03/06 11:28:50;;;;;;;5.90;4.77;;;;;;;5.16;80.24;152686.66;4951045;28;20455;-95